createdAt,value
2023-01-18T00:01:55.757Z,1.05
2023-01-18T00:05:03.605Z,1.40
2023-01-18T00:08:12.320Z,1.55
2023-01-18T00:11:20.272Z,2.38
2023-01-18T00:14:29.642Z,1.35
2023-01-18T00:17:47.512Z,1.55
2023-01-18T00:20:55.517Z,1.45
2023-01-18T00:24:03.362Z,1.92
2023-01-18T00:27:11.459Z,2.28
2023-01-18T00:30:22.064Z,1.95
2023-01-18T00:33:29.908Z,1.90
2023-01-18T00:36:37.719Z,2.25
2023-01-18T00:39:45.684Z,2.30
2023-01-18T00:43:10.771Z,1.13
2023-01-18T00:46:21.059Z,2.08
2023-01-18T00:49:29.403Z,2.50
2023-01-18T00:52:38.434Z,1.27
2023-01-18T00:55:46.946Z,1.27
2023-01-18T00:58:55.017Z,2.60
2023-01-18T01:02:04.399Z,1.25
2023-01-18T01:05:40.166Z,1.13
2023-01-18T01:08:50.122Z,1.58
2023-01-18T01:12:16.022Z,1.00
2023-01-18T01:15:41.305Z,1.85
2023-01-18T01:19:07.893Z,2.38
2023-01-18T01:22:33.316Z,2.25
2023-01-18T01:25:58.234Z,1.52
2023-01-18T01:29:06.071Z,2.13
2023-01-18T01:32:14.157Z,1.85
2023-01-18T01:35:23.607Z,1.50
2023-01-18T01:38:31.673Z,2.20
2023-01-18T01:41:39.772Z,3.47
2023-01-18T01:44:51.276Z,2.60
2023-01-18T01:47:58.970Z,3.13
2023-01-18T01:51:08.086Z,2.55
2023-01-18T01:54:17.462Z,1.35
2023-01-18T01:57:27.106Z,2.65
2023-01-18T02:00:34.967Z,1.55
2023-01-18T02:03:43.069Z,1.10
2023-01-18T02:06:52.500Z,2.10
2023-01-18T02:10:00.666Z,1.98
2023-01-18T02:13:08.840Z,1.05
2023-01-18T02:16:20.266Z,1.17
2023-01-18T02:19:49.229Z,1.33
2023-01-18T02:23:18.191Z,1.15
2023-01-18T02:26:44.131Z,1.83
2023-01-18T02:30:05.834Z,1.15
2023-01-18T02:33:16.639Z,1.30
2023-01-18T02:36:27.297Z,1.13
2023-01-18T02:39:39.247Z,2.05
2023-01-18T02:43:04.665Z,2.63
2023-01-18T02:46:34.753Z,1.08
2023-01-18T02:49:43.022Z,2.08
2023-01-18T02:52:52.065Z,1.80
2023-01-18T02:56:01.667Z,1.27
2023-01-18T02:59:11.214Z,2.95
2023-01-18T03:02:21.915Z,3.42
2023-01-18T03:05:30.295Z,1.65
2023-01-18T03:08:39.946Z,0.88
2023-01-18T03:11:52.611Z,3.10
2023-01-18T03:15:04.994Z,2.90
2023-01-18T03:18:18.712Z,1.52
2023-01-18T03:21:28.331Z,2.80
2023-01-18T03:24:41.789Z,1.88
2023-01-18T03:28:08.373Z,1.23
2023-01-18T03:31:36.483Z,0.70
2023-01-18T03:34:49.757Z,1.30
2023-01-18T03:37:57.873Z,1.48
2023-01-18T03:41:05.954Z,1.13
2023-01-18T03:44:15.362Z,1.38
2023-01-18T03:47:23.421Z,1.52
2023-01-18T03:50:35.322Z,1.48
2023-01-18T03:53:46.351Z,1.20
2023-01-18T03:56:55.648Z,1.02
2023-01-18T04:00:05.975Z,1.85
2023-01-18T04:03:20.455Z,0.98
2023-01-18T04:06:29.812Z,1.95
2023-01-18T04:09:37.634Z,0.75
2023-01-18T04:12:45.667Z,3.05
2023-01-18T04:15:53.567Z,1.65
2023-01-18T04:19:01.331Z,2.47
2023-01-18T04:22:10.784Z,1.98
2023-01-18T04:25:18.677Z,1.02
2023-01-18T04:28:27.469Z,1.08
2023-01-18T04:31:35.592Z,1.17
2023-01-18T04:34:43.438Z,1.05
2023-01-18T04:37:56.062Z,0.77
2023-01-18T04:41:04.552Z,1.30
2023-01-18T04:44:12.864Z,1.48
2023-01-18T04:47:20.868Z,1.10
2023-01-18T04:50:28.864Z,3.42
2023-01-18T04:53:38.489Z,1.13
2023-01-18T04:56:46.273Z,1.33
2023-01-18T04:59:54.419Z,1.85
2023-01-18T05:03:02.329Z,1.48
2023-01-18T05:06:11.796Z,1.33
2023-01-18T05:09:21.319Z,0.93
2023-01-18T05:12:29.310Z,1.50
2023-01-18T05:15:37.265Z,1.92
2023-01-18T05:18:45.523Z,0.73
2023-01-18T05:21:53.735Z,1.67
2023-01-18T05:25:03.098Z,1.20
2023-01-18T05:28:11.037Z,1.15
2023-01-18T05:31:21.183Z,0.90
2023-01-18T05:34:29.572Z,2.63
2023-01-18T05:37:37.632Z,3.05
2023-01-18T05:40:47.322Z,1.30
2023-01-18T05:43:55.156Z,1.00
2023-01-18T05:47:03.256Z,1.30
2023-01-18T05:50:11.888Z,1.23
2023-01-18T05:53:20.842Z,1.17
2023-01-18T05:56:30.079Z,0.90
2023-01-18T05:59:37.953Z,4.45
2023-01-18T06:02:46.061Z,1.30
2023-01-18T06:05:54.100Z,1.27
2023-01-18T06:09:02.187Z,2.17
2023-01-18T06:12:11.632Z,4.38
2023-01-18T06:15:19.761Z,1.45
2023-01-18T06:18:28.328Z,2.63
2023-01-18T06:21:36.277Z,1.17
2023-01-18T06:24:44.382Z,2.90
2023-01-18T06:27:53.606Z,10.00
2023-01-18T06:31:04.752Z,1.23
2023-01-18T06:34:13.099Z,4.82
2023-01-18T06:37:21.354Z,3.00
2023-01-18T06:40:29.467Z,3.85
2023-01-18T06:43:38.919Z,2.58
2023-01-18T06:46:46.603Z,1.67
2023-01-18T06:49:56.435Z,3.88
2023-01-18T06:53:04.233Z,1.20
2023-01-18T06:56:12.921Z,2.63
2023-01-18T06:59:22.370Z,2.22
2023-01-18T07:02:30.344Z,4.07
2023-01-18T07:05:38.395Z,1.00
2023-01-18T07:08:46.338Z,2.85
2023-01-18T07:11:54.354Z,3.22
2023-01-18T07:15:20.571Z,3.33
2023-01-18T07:18:29.659Z,6.57
2023-01-18T07:21:37.813Z,2.70
2023-01-18T07:24:46.444Z,3.08
2023-01-18T07:27:55.828Z,2.22
2023-01-18T07:31:05.611Z,2.70
2023-01-18T07:34:13.697Z,2.10
2023-01-18T07:37:21.723Z,2.15
2023-01-18T07:40:29.965Z,2.63
2023-01-18T07:43:38.519Z,1.83
2023-01-18T07:46:47.916Z,4.43
2023-01-18T07:49:55.600Z,4.88
2023-01-18T07:53:04.726Z,3.53
2023-01-18T07:56:13.756Z,2.50
2023-01-18T07:59:22.153Z,6.03
2023-01-18T08:02:31.974Z,2.08
2023-01-18T08:05:40.078Z,2.67
2023-01-18T08:08:48.092Z,3.17
2023-01-18T08:11:56.384Z,2.03
2023-01-18T08:15:05.365Z,1.45
2023-01-18T08:18:14.669Z,3.03
2023-01-18T08:21:22.613Z,2.75
2023-01-18T08:24:30.616Z,1.45
2023-01-18T08:27:38.778Z,1.95
2023-01-18T08:30:47.763Z,1.20
2023-01-18T08:33:57.291Z,2.05
2023-01-18T08:37:05.565Z,3.70
2023-01-18T08:40:14.244Z,1.98
2023-01-18T08:43:24.147Z,3.60
2023-01-18T08:46:32.344Z,4.38
2023-01-18T08:49:41.684Z,1.73
2023-01-18T08:52:52.413Z,2.78
2023-01-18T08:56:00.205Z,1.65
2023-01-18T08:59:09.086Z,2.00
2023-01-18T09:02:17.197Z,3.25
2023-01-18T09:05:26.970Z,2.00
2023-01-18T09:08:34.846Z,3.22
2023-01-18T09:11:42.978Z,1.40
2023-01-18T09:14:51.094Z,2.08
2023-01-18T09:18:01.589Z,2.00
2023-01-18T09:21:12.069Z,2.47
2023-01-18T09:24:19.983Z,1.13
2023-01-18T09:27:27.698Z,3.33
2023-01-18T09:30:36.900Z,2.25
2023-01-18T09:33:52.731Z,1.00
2023-01-18T09:37:03.229Z,2.08
2023-01-18T09:40:16.247Z,2.13
2023-01-18T09:43:28.140Z,2.58
2023-01-18T09:46:37.119Z,1.63
2023-01-18T09:49:52.039Z,2.03
2023-01-18T09:53:06.826Z,2.25
2023-01-18T09:56:17.324Z,1.45
2023-01-18T09:59:28.274Z,1.85
2023-01-18T10:02:39.341Z,2.42
2023-01-18T10:05:52.212Z,1.50
2023-01-18T10:09:04.182Z,1.73
2023-01-18T10:12:16.169Z,1.03
2023-01-18T10:15:26.505Z,1.73
2023-01-18T10:18:45.773Z,1.95
2023-01-18T10:21:55.574Z,1.15
2023-01-18T10:25:06.659Z,1.02
2023-01-18T10:28:25.219Z,1.75
2023-01-18T10:31:39.847Z,0.73
2023-01-18T10:34:49.568Z,2.05
2023-01-18T10:37:58.820Z,1.10
2023-01-18T10:41:16.715Z,2.15
2023-01-18T10:44:24.721Z,2.95
2023-01-18T10:47:33.991Z,1.42
2023-01-18T10:50:42.291Z,1.52
2023-01-18T10:53:50.416Z,1.83
2023-01-18T10:57:06.613Z,2.40
2023-01-18T11:00:23.259Z,1.83
2023-01-18T11:03:35.700Z,2.10
2023-01-18T11:06:47.109Z,1.45
2023-01-18T11:09:55.705Z,2.70
2023-01-18T11:13:04.889Z,0.82
2023-01-18T11:16:15.510Z,2.00
2023-01-18T11:19:23.845Z,0.82
2023-01-18T11:22:33.467Z,3.10
2023-01-18T11:25:42.598Z,3.15
2023-01-18T11:28:56.715Z,1.52
2023-01-18T11:32:06.506Z,1.13
2023-01-18T11:35:22.643Z,1.45
2023-01-18T11:38:32.488Z,1.13
2023-01-18T11:41:40.611Z,0.63
2023-01-18T11:44:54.753Z,0.90
2023-01-18T11:48:05.576Z,1.33
2023-01-18T11:51:19.751Z,1.25
2023-01-18T11:54:30.775Z,0.55
2023-01-18T11:57:39.035Z,1.05
2023-01-18T12:00:52.724Z,0.75
2023-01-18T12:04:02.727Z,1.42
2023-01-18T12:07:17.479Z,2.13
2023-01-18T12:10:26.035Z,1.38
2023-01-18T12:13:36.380Z,1.45
2023-01-18T12:16:52.919Z,0.90
2023-01-18T12:20:10.531Z,0.88
2023-01-18T12:23:31.240Z,3.40
2023-01-18T12:26:46.638Z,0.93
2023-01-18T12:30:07.247Z,0.85
2023-01-18T12:33:34.361Z,0.60
2023-01-18T12:37:04.020Z,0.73
2023-01-18T12:40:41.908Z,0.75
2023-01-18T12:43:57.482Z,2.22
2023-01-18T12:47:12.274Z,0.77
2023-01-18T12:50:24.113Z,0.82
2023-01-18T12:53:37.622Z,0.85
2023-01-18T12:56:47.199Z,3.33
2023-01-18T12:59:55.760Z,0.73
2023-01-18T13:03:05.690Z,0.60
2023-01-18T13:06:15.232Z,1.33
2023-01-18T13:09:24.127Z,1.52
2023-01-18T13:12:32.222Z,0.60
2023-01-18T13:15:43.567Z,0.90
2023-01-18T13:18:55.660Z,1.80
2023-01-18T13:22:09.276Z,1.27
2023-01-18T13:25:31.575Z,2.45
2023-01-18T13:28:39.306Z,0.73
2023-01-18T13:31:47.351Z,0.93
2023-01-18T13:35:18.498Z,0.80
2023-01-18T13:38:40.771Z,0.80
2023-01-18T13:42:09.881Z,0.52
2023-01-18T13:45:20.220Z,0.70
2023-01-18T13:48:46.221Z,0.60
2023-01-18T13:51:54.537Z,0.90
2023-01-18T13:55:06.272Z,1.33
2023-01-18T13:58:19.089Z,0.75
2023-01-18T14:01:28.344Z,1.02
2023-01-18T14:04:36.682Z,1.42
2023-01-18T14:07:48.585Z,0.60
2023-01-18T14:11:03.836Z,2.38
2023-01-18T14:14:26.204Z,0.82
2023-01-18T14:17:34.447Z,0.80
2023-01-18T14:21:02.775Z,0.77
2023-01-18T14:24:23.307Z,0.95
2023-01-18T14:27:36.842Z,1.25
2023-01-18T14:30:45.113Z,1.50
2023-01-18T14:33:53.315Z,0.60
2023-01-18T14:37:01.425Z,0.60
2023-01-18T14:40:17.524Z,1.55
2023-01-18T14:43:29.444Z,0.80
2023-01-18T14:46:37.363Z,2.42
2023-01-18T14:49:45.367Z,1.38
2023-01-18T14:52:53.643Z,0.98
2023-01-18T14:56:03.158Z,0.85
2023-01-18T14:59:20.733Z,0.60
2023-01-18T15:02:29.317Z,1.17
2023-01-18T15:05:37.228Z,0.90
2023-01-18T15:08:45.171Z,1.15
2023-01-18T15:11:54.570Z,0.60
2023-01-18T15:15:06.638Z,1.83
2023-01-18T15:18:17.884Z,0.88
2023-01-18T15:21:28.539Z,0.88
2023-01-18T15:24:38.527Z,0.70
2023-01-18T15:27:50.009Z,0.93
2023-01-18T15:30:59.188Z,0.70
2023-01-18T15:34:07.237Z,3.30
2023-01-18T15:37:17.648Z,0.88
2023-01-18T15:40:29.458Z,0.80
2023-01-18T15:43:39.211Z,0.73
2023-01-18T15:46:49.121Z,0.55
2023-01-18T15:49:58.347Z,1.40
2023-01-18T15:53:09.831Z,1.02
2023-01-18T15:56:18.714Z,1.45
2023-01-18T15:59:27.080Z,0.85
2023-01-18T16:02:42.143Z,0.70
2023-01-18T16:06:03.915Z,2.28
2023-01-18T16:09:19.012Z,1.17
2023-01-18T16:12:35.919Z,0.90
2023-01-18T16:15:43.992Z,1.20
2023-01-18T16:19:00.866Z,1.08
2023-01-18T16:22:17.048Z,0.68
2023-01-18T16:25:25.101Z,1.65
2023-01-18T16:28:32.874Z,1.13
2023-01-18T16:31:42.313Z,2.50
2023-01-18T16:34:52.550Z,1.20
2023-01-18T16:38:00.903Z,2.05
2023-01-18T16:41:09.208Z,1.95
2023-01-18T16:44:17.140Z,2.78
2023-01-18T16:47:25.126Z,1.02
2023-01-18T16:50:35.113Z,1.60
2023-01-18T16:53:43.145Z,1.70
2023-01-18T16:56:51.230Z,2.05
2023-01-18T16:59:59.404Z,3.75
2023-01-18T17:03:07.637Z,2.38
2023-01-18T17:06:19.490Z,2.05
2023-01-18T17:09:30.633Z,2.95
2023-01-18T17:12:41.140Z,1.95
2023-01-18T17:15:49.036Z,3.28
2023-01-18T17:18:57.418Z,1.58
2023-01-18T17:22:07.443Z,2.53
2023-01-18T17:25:15.711Z,3.05
2023-01-18T17:28:23.753Z,2.13
2023-01-18T17:31:33.759Z,2.13
2023-01-18T17:34:43.120Z,2.10
2023-01-18T17:38:00.651Z,2.17
2023-01-18T17:41:22.865Z,1.33
2023-01-18T17:44:36.499Z,1.30
2023-01-18T17:47:45.047Z,1.70
2023-01-18T17:50:53.069Z,1.33
2023-01-18T17:54:03.693Z,2.63
2023-01-18T17:57:13.999Z,2.70
2023-01-18T18:00:22.416Z,3.13
2023-01-18T18:03:30.554Z,1.70
2023-01-18T18:06:46.047Z,2.35
2023-01-18T18:10:01.168Z,1.60
2023-01-18T18:13:09.214Z,2.75
2023-01-18T18:16:18.765Z,1.95
2023-01-18T18:19:27.688Z,1.98
2023-01-18T18:22:35.923Z,1.83
2023-01-18T18:25:46.084Z,1.75
2023-01-18T18:28:53.850Z,2.05
2023-01-18T18:32:01.880Z,2.88
2023-01-18T18:35:26.544Z,5.32
2023-01-18T18:38:34.883Z,2.72
2023-01-18T18:41:44.915Z,2.38
2023-01-18T18:44:52.849Z,2.13
2023-01-18T18:48:01.083Z,3.88
2023-01-18T18:51:09.757Z,3.28
2023-01-18T18:54:18.106Z,1.55
2023-01-18T18:57:29.250Z,4.43
2023-01-18T19:00:37.466Z,1.70
2023-01-18T19:03:45.952Z,2.50
2023-01-18T19:06:53.873Z,2.72
2023-01-18T19:10:01.892Z,4.22
2023-01-18T19:13:11.310Z,4.45
2023-01-18T19:16:19.226Z,3.03
2023-01-18T19:19:27.302Z,6.95
2023-01-18T19:22:37.663Z,6.72
2023-01-18T19:25:45.768Z,7.60
2023-01-18T19:28:55.327Z,11.57
2023-01-18T19:32:03.316Z,12.65
2023-01-18T19:35:11.624Z,11.07
2023-01-18T19:38:19.548Z,9.27
2023-01-18T19:41:30.061Z,9.60
2023-01-18T19:44:39.263Z,7.30
2023-01-18T19:47:48.208Z,7.93
2023-01-18T19:50:56.243Z,9.70
2023-01-18T19:54:04.770Z,6.30
2023-01-18T19:57:12.602Z,17.55
2023-01-18T20:00:22.509Z,7.07
2023-01-18T20:03:30.387Z,8.40
2023-01-18T20:06:39.457Z,11.73
2023-01-18T20:09:47.457Z,9.02
2023-01-18T20:12:56.187Z,5.38
2023-01-18T20:16:06.255Z,6.80
2023-01-18T20:19:14.423Z,6.28
2023-01-18T20:22:22.729Z,4.82
2023-01-18T20:25:30.622Z,3.38
2023-01-18T20:28:38.719Z,5.97
2023-01-18T20:31:50.211Z,6.65
2023-01-18T20:34:58.613Z,3.58
2023-01-18T20:38:06.570Z,8.23
2023-01-18T20:41:14.549Z,5.00
2023-01-18T20:44:24.629Z,6.85
2023-01-18T20:47:34.218Z,5.15
2023-01-18T20:50:42.267Z,3.92
2023-01-18T20:53:50.197Z,6.72
2023-01-18T20:56:58.817Z,5.82
2023-01-18T21:00:09.386Z,4.97
2023-01-18T21:03:19.524Z,4.80
2023-01-18T21:06:27.743Z,4.22
2023-01-18T21:09:35.861Z,21.05
2023-01-18T21:12:43.760Z,4.82
2023-01-18T21:15:55.366Z,4.80
2023-01-18T21:19:04.897Z,3.80
2023-01-18T21:22:12.956Z,3.83
2023-01-18T21:25:21.013Z,5.13
2023-01-18T21:28:28.943Z,6.72
2023-01-18T21:31:38.908Z,3.70
2023-01-18T21:34:49.548Z,3.10
2023-01-18T21:38:00.305Z,3.97
2023-01-18T21:41:25.278Z,3.53
2023-01-18T21:44:50.619Z,3.75
2023-01-18T21:47:59.736Z,3.45
2023-01-18T21:51:27.739Z,2.80
2023-01-18T21:54:36.050Z,2.30
2023-01-18T21:57:44.037Z,3.85
2023-01-18T22:00:52.320Z,3.25
2023-01-18T22:04:18.014Z,6.05
2023-01-18T22:07:27.375Z,5.15
2023-01-18T22:10:35.648Z,3.35
2023-01-18T22:13:43.512Z,3.25
2023-01-18T22:16:51.722Z,3.60
2023-01-18T22:19:59.755Z,5.20
2023-01-18T22:23:09.640Z,4.70
2023-01-18T22:26:17.460Z,1.88
2023-01-18T22:29:25.668Z,2.80
2023-01-18T22:32:34.646Z,2.40
2023-01-18T22:35:42.661Z,5.60
2023-01-18T22:38:53.838Z,4.60
2023-01-18T22:42:01.610Z,2.70
2023-01-18T22:45:10.220Z,5.75
2023-01-18T22:48:18.735Z,3.47
2023-01-18T22:51:26.875Z,3.25
2023-01-18T22:54:36.085Z,4.97
2023-01-18T22:57:44.219Z,2.45
2023-01-18T23:00:52.306Z,4.65
2023-01-18T23:04:01.602Z,4.25
2023-01-18T23:07:09.594Z,2.42
2023-01-18T23:10:19.225Z,5.13
2023-01-18T23:13:27.036Z,2.67
2023-01-18T23:16:52.585Z,2.28
2023-01-18T23:20:00.416Z,2.38
2023-01-18T23:23:08.455Z,3.05
2023-01-18T23:26:17.897Z,1.92
2023-01-18T23:29:25.962Z,2.55
2023-01-18T23:32:35.283Z,5.85
2023-01-18T23:35:43.127Z,2.17
2023-01-18T23:39:08.418Z,2.95
2023-01-18T23:42:35.363Z,1.38
2023-01-18T23:46:01.640Z,2.28
2023-01-18T23:49:27.275Z,2.75
2023-01-18T23:52:52.290Z,2.42
2023-01-18T23:56:00.415Z,2.80
2023-01-18T23:59:10.003Z,4.10
